Time,TemperatureF,DewpointF,PressureIn,WindDirection,WindDirectionDegrees,WindSpeedMPH,WindSpeedGustMPH,Humidity,HourlyPrecipIn,Conditions,Clouds,dailyrainin,SoftwareType,DateUTC
2013-05-02 00:02:00,68.5,62.8,29.89,ENE,63,8.0,13.0,82,0.00,,,0.00,meteohub,2013-05-02 05:02:00,
2013-05-02 00:07:00,68.4,62.6,29.90,East,100,2.0,13.0,82,0.00,,,0.00,meteohub,2013-05-02 05:07:00,
2013-05-02 00:13:00,68.4,62.6,29.90,NE,53,3.0,9.0,82,0.00,,,0.00,meteohub,2013-05-02 05:13:00,
2013-05-02 00:18:00,68.2,62.4,29.90,ENE,62,2.0,11.0,82,0.00,,,0.00,meteohub,2013-05-02 05:18:00,
2013-05-02 00:23:00,68.2,62.4,29.91,ENE,59,0.0,11.0,82,0.00,,,0.00,meteohub,2013-05-02 05:23:00,
2013-05-02 00:28:00,68.0,62.6,29.91,NE,48,0.0,11.0,83,0.00,,,0.00,meteohub,2013-05-02 05:28:00,
2013-05-02 00:34:00,67.8,62.4,29.92,NE,40,1.0,10.0,83,0.00,,,0.00,meteohub,2013-05-02 05:34:00,
2013-05-02 00:39:00,67.6,62.6,29.93,East,85,1.0,10.0,84,0.00,,,0.00,meteohub,2013-05-02 05:39:00,
2013-05-02 00:44:00,67.6,62.6,29.93,ENE,65,0.0,7.0,84,0.00,,,0.00,meteohub,2013-05-02 05:44:00,
2013-05-02 00:49:00,67.5,62.4,29.94,ENE,72,0.0,7.0,84,0.00,,,0.00,meteohub,2013-05-02 05:49:00,
2013-05-02 00:55:00,67.5,62.4,29.94,NE,43,1.0,8.0,84,0.00,,,0.00,meteohub,2013-05-02 05:55:00,
2013-05-02 01:00:00,67.3,62.2,29.94,ENE,63,1.0,8.0,84,0.00,,,0.00,meteohub,2013-05-02 06:00:00,
2013-05-02 01:05:00,66.9,62.2,29.95,ENE,63,0.0,7.0,85,0.00,,,0.00,meteohub,2013-05-02 06:05:00,
2013-05-02 01:11:00,66.9,62.2,29.95,ENE,63,0.0,7.0,85,0.00,,,0.00,meteohub,2013-05-02 06:11:00,
2013-05-02 01:16:00,66.7,62.1,29.95,ENE,63,0.0,3.0,85,0.00,,,0.00,meteohub,2013-05-02 06:16:00,
2013-05-02 01:21:00,66.6,62.2,29.96,ENE,63,0.0,2.0,86,0.00,,,0.00,meteohub,2013-05-02 06:21:00,
2013-05-02 01:27:00,66.4,62.1,29.96,ENE,63,0.0,0.0,86,0.00,,,0.00,meteohub,2013-05-02 06:27:00,
2013-05-02 01:32:00,66.0,62.1,29.97,ENE,62,0.0,0.0,87,0.00,,,0.00,meteohub,2013-05-02 06:32:00,
2013-05-02 01:37:00,66.0,62.1,29.97,ENE,63,0.0,1.0,87,0.00,,,0.00,meteohub,2013-05-02 06:37:00,
2013-05-02 01:42:00,65.8,61.9,29.97,ENE,62,0.0,1.0,87,0.00,,,0.00,meteohub,2013-05-02 06:42:00,
2013-05-02 01:47:00,65.7,62.1,29.97,ENE,62,0.0,1.0,88,0.00,,,0.00,meteohub,2013-05-02 06:47:00,
2013-05-02 01:52:00,65.5,61.9,29.97,NE,37,0.0,1.0,88,0.00,,,0.00,meteohub,2013-05-02 06:52:00,
2013-05-02 01:57:00,65.5,61.9,29.97,NE,37,0.0,1.0,88,0.00,,,0.00,meteohub,2013-05-02 06:57:00,
2013-05-02 02:02:00,65.5,61.9,29.97,NE,37,0.0,1.0,88,0.00,,,0.00,meteohub,2013-05-02 07:02:00,
2013-05-02 02:07:00,65.5,62.2,29.96,NW,306,0.0,1.0,89,0.00,,,0.00,meteohub,2013-05-02 07:07:00,
2013-05-02 02:12:00,65.3,62.1,29.96,NW,306,0.0,3.0,89,0.00,,,0.00,meteohub,2013-05-02 07:12:00,
2013-05-02 02:17:00,65.3,62.1,29.95,NW,306,0.0,3.0,89,0.00,,,0.00,meteohub,2013-05-02 07:17:00,
2013-05-02 02:22:00,65.3,61.7,29.96,NW,306,0.0,3.0,88,0.00,,,0.00,meteohub,2013-05-02 07:22:00,
2013-05-02 02:27:00,65.5,61.9,29.96,NW,314,3.0,3.0,88,0.00,,,0.00,meteohub,2013-05-02 07:27:00,
2013-05-02 02:32:00,65.5,61.9,29.96,North,350,0.0,3.0,88,0.00,,,0.00,meteohub,2013-05-02 07:32:00,
2013-05-02 02:37:00,65.7,62.1,29.96,North,350,0.0,3.0,88,0.00,,,0.00,meteohub,2013-05-02 07:37:00,
2013-05-02 02:42:00,65.8,62.2,29.96,North,350,0.0,3.0,88,0.00,,,0.00,meteohub,2013-05-02 07:42:00,
2013-05-02 02:47:00,66.0,62.1,29.97,NNW,329,2.0,3.0,87,0.00,,,0.00,meteohub,2013-05-02 07:47:00,
2013-05-02 02:52:00,66.0,62.1,29.96,NNW,329,0.0,3.0,87,0.00,,,0.00,meteohub,2013-05-02 07:52:00,
2013-05-02 02:57:00,66.2,61.9,29.96,NNW,328,0.0,4.0,86,0.00,,,0.00,meteohub,2013-05-02 07:57:00,
2013-05-02 03:02:00,66.2,61.9,29.96,NNW,328,0.0,4.0,86,0.00,,,0.00,meteohub,2013-05-02 08:02:00,
2013-05-02 03:07:00,66.4,62.1,29.96,NNW,328,0.0,3.0,86,0.00,,,0.00,meteohub,2013-05-02 08:07:00,
2013-05-02 03:12:00,66.4,62.1,29.96,NNW,328,0.0,3.0,86,0.00,,,0.00,meteohub,2013-05-02 08:12:00,
2013-05-02 03:17:00,66.6,61.9,29.96,NW,323,0.0,3.0,85,0.00,,,0.00,meteohub,2013-05-02 08:17:00,
2013-05-02 03:23:00,66.6,61.9,29.96,NW,323,0.0,4.0,85,0.00,,,0.00,meteohub,2013-05-02 08:23:00,
2013-05-02 03:28:00,66.6,61.9,29.96,NW,313,1.0,6.0,85,0.00,,,0.00,meteohub,2013-05-02 08:28:00,
2013-05-02 03:33:00,66.7,62.1,29.96,NW,318,0.0,6.0,85,0.00,,,0.00,meteohub,2013-05-02 08:33:00,
2013-05-02 03:38:00,66.7,61.7,29.96,NW,315,0.0,6.0,84,0.00,,,0.00,meteohub,2013-05-02 08:38:00,
2013-05-02 03:44:00,66.7,61.7,29.96,NW,315,0.0,6.0,84,0.00,,,0.00,meteohub,2013-05-02 08:44:00,
2013-05-02 03:49:00,66.7,61.7,29.96,NNE,19,0.0,3.0,84,0.00,,,0.00,meteohub,2013-05-02 08:49:00,
2013-05-02 03:54:00,66.7,61.7,29.96,NE,42,0.0,7.0,84,0.00,,,0.00,meteohub,2013-05-02 08:54:00,
2013-05-02 03:59:00,66.6,61.5,29.96,ENE,62,0.0,7.0,84,0.00,,,0.00,meteohub,2013-05-02 08:59:00,
2013-05-02 04:04:00,66.6,61.5,29.96,NW,321,0.0,5.0,84,0.00,,,0.00,meteohub,2013-05-02 09:04:00,
2013-05-02 04:10:00,66.6,61.9,29.96,North,0,1.0,5.0,85,0.00,,,0.00,meteohub,2013-05-02 09:10:00,
2013-05-02 04:15:00,66.6,61.9,29.97,North,0,0.0,4.0,85,0.00,,,0.00,meteohub,2013-05-02 09:15:00,
2013-05-02 04:20:00,66.6,61.9,29.98,NW,319,2.0,3.0,85,0.00,,,0.00,meteohub,2013-05-02 09:20:00,
2013-05-02 04:25:00,66.6,61.9,29.98,NW,321,0.0,3.0,85,0.00,,,0.00,meteohub,2013-05-02 09:25:00,
2013-05-02 04:30:00,66.6,61.9,29.98,North,355,3.0,4.0,85,0.00,,,0.00,meteohub,2013-05-02 09:30:00,
2013-05-02 04:36:00,66.6,61.9,29.98,NNE,24,0.0,6.0,85,0.00,,,0.00,meteohub,2013-05-02 09:36:00,
2013-05-02 04:41:00,66.6,61.9,29.98,North,355,0.0,6.0,85,0.00,,,0.00,meteohub,2013-05-02 09:41:00,
2013-05-02 04:46:00,66.6,61.9,29.98,NNW,327,3.0,6.0,85,0.00,,,0.00,meteohub,2013-05-02 09:46:00,
2013-05-02 04:51:00,66.6,61.9,29.98,NNW,336,0.0,8.0,85,0.00,,,0.00,meteohub,2013-05-02 09:51:00,
2013-05-02 04:56:00,66.6,61.9,29.98,ENE,69,2.0,8.0,85,0.00,,,0.00,meteohub,2013-05-02 09:56:00,
2013-05-02 05:02:00,66.4,62.1,29.99,NNW,335,2.0,8.0,86,0.00,,,0.00,meteohub,2013-05-02 10:02:00,
2013-05-02 05:07:00,65.5,60.8,29.99,NW,318,7.0,8.0,85,0.00,,,0.00,meteohub,2013-05-02 10:07:00,
2013-05-02 05:12:00,63.9,59.0,29.99,NW,307,10.0,16.0,84,0.00,,,0.00,meteohub,2013-05-02 10:12:00,
2013-05-02 05:17:00,61.9,57.4,30.00,NNW,338,7.0,16.0,85,0.00,,,0.00,meteohub,2013-05-02 10:17:00,
2013-05-02 05:22:00,59.9,55.8,30.01,North,350,9.0,15.0,86,0.00,,,0.00,meteohub,2013-05-02 10:22:00,
2013-05-02 05:27:00,58.6,55.0,30.01,NNW,346,3.0,15.0,88,0.00,,,0.00,meteohub,2013-05-02 10:27:00,
2013-05-02 05:32:00,57.9,54.7,30.01,NW,313,10.0,16.0,89,0.00,,,0.00,meteohub,2013-05-02 10:32:00,
2013-05-02 05:37:00,57.6,54.7,30.02,NW,309,5.0,16.0,90,0.00,,,0.00,meteohub,2013-05-02 10:37:00,
2013-05-02 05:42:00,56.8,54.0,30.02,NW,320,6.0,17.0,90,0.00,,,0.00,meteohub,2013-05-02 10:42:00,
2013-05-02 05:47:00,56.1,53.2,30.03,NW,315,4.0,17.0,90,0.00,,,0.00,meteohub,2013-05-02 10:47:00,
2013-05-02 05:52:00,55.8,52.9,30.03,North,5,3.0,19.0,90,0.00,,,0.00,meteohub,2013-05-02 10:52:00,
2013-05-02 05:57:00,55.6,52.7,30.04,NW,324,4.0,19.0,90,0.00,,,0.00,meteohub,2013-05-02 10:57:00,
2013-05-02 06:02:00,55.0,51.8,30.04,North,10,3.0,19.0,89,0.00,,,0.01,meteohub,2013-05-02 11:02:00,
2013-05-02 06:07:00,54.7,51.4,30.04,NNW,344,9.0,13.0,89,0.01,,,0.01,meteohub,2013-05-02 11:07:00,
2013-05-02 06:12:00,54.1,51.3,30.05,NNE,12,6.0,14.0,90,0.01,,,0.01,meteohub,2013-05-02 11:12:00,
2013-05-02 06:17:00,53.8,50.9,30.05,NNW,327,9.0,14.0,90,0.01,,,0.01,meteohub,2013-05-02 11:17:00,
2013-05-02 06:22:00,53.4,50.5,30.05,NNW,332,4.0,15.0,90,0.01,,,0.01,meteohub,2013-05-02 11:22:00,
2013-05-02 06:27:00,53.2,50.4,30.06,NW,316,14.0,16.0,90,0.01,,,0.01,meteohub,2013-05-02 11:27:00,
2013-05-02 06:32:00,53.1,50.2,30.06,NNW,338,6.0,16.0,90,0.01,,,0.01,meteohub,2013-05-02 11:32:00,
2013-05-02 06:37:00,53.1,50.5,30.06,SW,236,10.0,16.0,91,0.01,,,0.01,meteohub,2013-05-02 11:37:00,
2013-05-02 06:42:00,53.1,49.8,30.06,North,0,7.0,16.0,89,0.01,,,0.01,meteohub,2013-05-02 11:42:00,
2013-05-02 06:47:00,53.1,49.8,30.07,North,355,4.0,16.0,89,0.01,,,0.01,meteohub,2013-05-02 11:47:00,
2013-05-02 06:53:00,52.9,49.6,30.07,NNW,344,3.0,16.0,89,0.01,,,0.01,meteohub,2013-05-02 11:53:00,
2013-05-02 06:58:00,52.7,48.9,30.08,North,355,4.0,16.0,87,0.01,,,0.01,meteohub,2013-05-02 11:58:00,
2013-05-02 07:03:00,52.5,48.7,30.08,NW,305,3.0,16.0,87,0.01,,,0.01,meteohub,2013-05-02 12:03:00,
2013-05-02 07:09:00,52.5,49.1,30.08,NNE,24,5.0,15.0,88,0.00,,,0.01,meteohub,2013-05-02 12:09:00,
2013-05-02 07:14:00,52.3,48.6,30.09,North,351,4.0,13.0,87,0.00,,,0.01,meteohub,2013-05-02 12:14:00,
2013-05-02 07:19:00,52.2,48.0,30.09,NW,323,5.0,15.0,86,0.00,,,0.01,meteohub,2013-05-02 12:19:00,
2013-05-02 07:25:00,52.0,47.8,30.09,NNW,332,11.0,15.0,86,0.00,,,0.01,meteohub,2013-05-02 12:25:00,
2013-05-02 07:30:00,51.8,47.7,30.10,NW,315,7.0,15.0,86,0.00,,,0.01,meteohub,2013-05-02 12:30:00,
2013-05-02 07:35:00,51.6,47.3,30.10,North,349,10.0,15.0,85,0.00,,,0.01,meteohub,2013-05-02 12:35:00,
2013-05-02 07:40:00,51.6,46.9,30.10,NW,315,4.0,15.0,84,0.00,,,0.01,meteohub,2013-05-02 12:40:00,
2013-05-02 07:46:00,51.8,47.1,30.10,NNE,26,0.0,15.0,84,0.00,,,0.01,meteohub,2013-05-02 12:46:00,
2013-05-02 07:51:00,51.8,47.1,30.10,NNE,17,5.0,14.0,84,0.00,,,0.01,meteohub,2013-05-02 12:51:00,
2013-05-02 07:56:00,52.0,47.3,30.10,North,5,8.0,15.0,84,0.00,,,0.01,meteohub,2013-05-02 12:56:00,
2013-05-02 08:01:00,52.0,46.9,30.10,NNW,339,4.0,15.0,83,0.00,,,0.01,meteohub,2013-05-02 13:01:00,
2013-05-02 08:07:00,52.0,46.9,30.11,North,5,2.0,15.0,83,0.00,,,0.01,meteohub,2013-05-02 13:07:00,
2013-05-02 08:12:00,52.0,46.9,30.11,NW,323,6.0,14.0,83,0.00,,,0.01,meteohub,2013-05-02 13:12:00,
2013-05-02 08:17:00,52.0,46.6,30.11,NW,322,5.0,14.0,82,0.00,,,0.01,meteohub,2013-05-02 13:17:00,
2013-05-02 08:22:00,52.0,46.6,30.11,NW,304,6.0,16.0,82,0.00,,,0.01,meteohub,2013-05-02 13:22:00,
2013-05-02 08:27:00,51.8,46.8,30.11,NW,305,7.0,16.0,83,0.00,,,0.01,meteohub,2013-05-02 13:27:00,
2013-05-02 08:32:00,51.4,46.8,30.12,NNW,338,5.0,16.0,84,0.00,,,0.01,meteohub,2013-05-02 13:32:00,
2013-05-02 08:37:00,51.4,47.1,30.12,NW,320,7.0,16.0,85,0.00,,,0.01,meteohub,2013-05-02 13:37:00,
2013-05-02 08:42:00,51.1,47.1,30.13,NNW,332,11.0,16.0,86,0.00,,,0.01,meteohub,2013-05-02 13:42:00,
2013-05-02 08:47:00,51.1,47.1,30.13,NNE,23,4.0,16.0,86,0.00,,,0.01,meteohub,2013-05-02 13:47:00,
2013-05-02 08:52:00,50.9,46.9,30.14,NW,306,6.0,15.0,86,0.00,,,0.01,meteohub,2013-05-02 13:52:00,
2013-05-02 08:57:00,50.9,46.9,30.13,NNW,344,14.0,15.0,86,0.00,,,0.01,meteohub,2013-05-02 13:57:00,
2013-05-02 09:02:00,51.3,46.9,30.13,NNE,22,2.0,15.0,85,0.00,,,0.01,meteohub,2013-05-02 14:02:00,
2013-05-02 09:07:00,51.4,46.8,30.13,North,11,4.0,15.0,84,0.00,,,0.01,meteohub,2013-05-02 14:07:00,
2013-05-02 09:12:00,52.0,47.3,30.13,North,355,10.0,14.0,84,0.00,,,0.01,meteohub,2013-05-02 14:12:00,
2013-05-02 09:17:00,52.3,46.9,30.13,NW,325,2.0,14.0,82,0.00,,,0.01,meteohub,2013-05-02 14:17:00,
2013-05-02 09:22:00,52.7,47.3,30.13,NW,305,4.0,11.0,82,0.00,,,0.01,meteohub,2013-05-02 14:22:00,
2013-05-02 09:27:00,52.9,47.3,30.13,NW,311,14.0,14.0,81,0.00,,,0.01,meteohub,2013-05-02 14:27:00,
2013-05-02 09:32:00,53.1,47.3,30.14,NW,326,8.0,15.0,81,0.00,,,0.01,meteohub,2013-05-02 14:32:00,
2013-05-02 09:37:00,53.2,47.3,30.13,North,11,2.0,15.0,80,0.00,,,0.01,meteohub,2013-05-02 14:37:00,
2013-05-02 09:43:00,53.4,47.5,30.14,NNW,328,7.0,15.0,80,0.00,,,0.01,meteohub,2013-05-02 14:43:00,
2013-05-02 09:48:00,53.2,46.9,30.14,NW,320,1.0,17.0,79,0.00,,,0.01,meteohub,2013-05-02 14:48:00,
2013-05-02 09:53:00,53.2,46.9,30.14,WNW,289,14.0,17.0,79,0.00,,,0.01,meteohub,2013-05-02 14:53:00,
2013-05-02 09:58:00,53.6,46.9,30.14,NNW,342,5.0,18.0,78,0.00,,,0.01,meteohub,2013-05-02 14:58:00,
2013-05-02 10:04:00,53.6,46.6,30.14,North,5,9.0,18.0,77,0.00,,,0.01,meteohub,2013-05-02 15:04:00,
2013-05-02 10:09:00,53.6,46.6,30.14,NW,312,8.0,18.0,77,0.00,,,0.01,meteohub,2013-05-02 15:09:00,
2013-05-02 10:14:00,53.6,46.6,30.14,NNW,329,9.0,14.0,77,0.00,,,0.01,meteohub,2013-05-02 15:14:00,
2013-05-02 10:19:00,53.8,46.8,30.14,North,0,4.0,14.0,77,0.00,,,0.01,meteohub,2013-05-02 15:19:00,
2013-05-02 10:24:00,53.6,46.2,30.14,NW,325,13.0,15.0,76,0.00,,,0.01,meteohub,2013-05-02 15:24:00,
2013-05-02 10:30:00,53.4,46.0,30.15,NW,310,6.0,19.0,76,0.00,,,0.01,meteohub,2013-05-02 15:30:00,
2013-05-02 10:35:00,53.4,46.0,30.14,NNW,338,12.0,19.0,76,0.00,,,0.01,meteohub,2013-05-02 15:35:00,
2013-05-02 10:40:00,53.4,46.4,30.15,North,350,1.0,21.0,77,0.00,,,0.01,meteohub,2013-05-02 15:40:00,
2013-05-02 10:45:00,53.4,46.0,30.15,NW,325,7.0,21.0,76,0.00,,,0.01,meteohub,2013-05-02 15:45:00,
2013-05-02 10:50:00,53.6,46.2,30.15,NNW,327,3.0,21.0,76,0.00,,,0.01,meteohub,2013-05-02 15:50:00,
2013-05-02 10:55:00,53.8,46.4,30.16,North,0,6.0,14.0,76,0.00,,,0.01,meteohub,2013-05-02 15:55:00,
2013-05-02 11:01:00,53.4,45.7,30.16,North,355,4.0,14.0,75,0.00,,,0.01,meteohub,2013-05-02 16:01:00,
2013-05-02 11:06:00,53.2,45.5,30.17,NW,325,4.0,20.0,75,0.00,,,0.01,meteohub,2013-05-02 16:06:00,
2013-05-02 11:11:00,53.2,45.9,30.16,NW,316,6.0,20.0,76,0.00,,,0.01,meteohub,2013-05-02 16:11:00,
2013-05-02 11:16:00,53.4,45.7,30.17,NNW,343,4.0,19.0,75,0.00,,,0.01,meteohub,2013-05-02 16:16:00,
2013-05-02 11:21:00,53.2,45.9,30.17,NNE,13,11.0,18.0,76,0.00,,,0.01,meteohub,2013-05-02 16:21:00,
2013-05-02 11:27:00,53.2,45.5,30.17,NNW,341,4.0,18.0,75,0.00,,,0.01,meteohub,2013-05-02 16:27:00,
2013-05-02 11:32:00,53.2,45.5,30.17,NW,306,3.0,18.0,75,0.00,,,0.01,meteohub,2013-05-02 16:32:00,
2013-05-02 11:37:00,53.2,45.5,30.17,NNW,329,6.0,16.0,75,0.00,,,0.01,meteohub,2013-05-02 16:37:00,
2013-05-02 11:42:00,53.1,45.3,30.17,North,355,4.0,15.0,75,0.00,,,0.01,meteohub,2013-05-02 16:42:00,
2013-05-02 11:47:00,52.9,45.1,30.17,NNE,12,4.0,15.0,75,0.00,,,0.01,meteohub,2013-05-02 16:47:00,
2013-05-02 11:52:00,52.9,45.1,30.18,NNW,339,6.0,15.0,75,0.00,,,0.01,meteohub,2013-05-02 16:52:00,
2013-05-02 11:57:00,52.5,44.8,30.18,NW,312,10.0,15.0,75,0.00,,,0.01,meteohub,2013-05-02 16:57:00,
2013-05-02 12:02:00,52.5,44.8,30.18,NW,318,6.0,18.0,75,0.00,,,0.01,meteohub,2013-05-02 17:02:00,
2013-05-02 12:07:00,52.7,45.3,30.19,NW,322,0.0,18.0,76,0.00,,,0.01,meteohub,2013-05-02 17:07:00,
2013-05-02 12:12:00,52.9,45.1,30.19,NW,305,6.0,18.0,75,0.00,,,0.01,meteohub,2013-05-02 17:12:00,
2013-05-02 12:17:00,52.5,44.8,30.19,NNW,329,7.0,18.0,75,0.00,,,0.01,meteohub,2013-05-02 17:17:00,
2013-05-02 12:22:00,52.2,44.4,30.19,NNW,340,6.0,18.0,75,0.00,,,0.01,meteohub,2013-05-02 17:22:00,
2013-05-02 12:27:00,52.2,44.4,30.19,North,355,6.0,18.0,75,0.00,,,0.01,meteohub,2013-05-02 17:27:00,
2013-05-02 12:32:00,52.2,44.8,30.19,NW,314,6.0,15.0,76,0.00,,,0.01,meteohub,2013-05-02 17:32:00,
2013-05-02 12:37:00,52.3,45.0,30.19,NNW,343,2.0,14.0,76,0.00,,,0.01,meteohub,2013-05-02 17:37:00,
2013-05-02 12:42:00,52.3,44.6,30.19,NW,308,9.0,14.0,75,0.00,,,0.01,meteohub,2013-05-02 17:42:00,
2013-05-02 12:47:00,52.3,44.6,30.19,NNW,332,5.0,18.0,75,0.00,,,0.01,meteohub,2013-05-02 17:47:00,
2013-05-02 12:52:00,52.5,44.8,30.19,NW,314,2.0,18.0,75,0.00,,,0.01,meteohub,2013-05-02 17:52:00,
2013-05-02 12:57:00,52.7,45.3,30.19,NW,320,9.0,18.0,76,0.00,,,0.01,meteohub,2013-05-02 17:57:00,
2013-05-02 13:02:00,52.7,44.6,30.19,WNW,294,15.0,18.0,74,0.00,,,0.01,meteohub,2013-05-02 18:02:00,
2013-05-02 13:07:00,52.3,44.2,30.19,WNW,294,6.0,22.0,74,0.00,,,0.01,meteohub,2013-05-02 18:07:00,
2013-05-02 13:12:00,52.3,44.2,30.19,NNW,336,6.0,22.0,74,0.00,,,0.01,meteohub,2013-05-02 18:12:00,
2013-05-02 13:18:00,52.7,45.0,30.19,NNW,343,15.0,22.0,75,0.00,,,0.01,meteohub,2013-05-02 18:18:00,
2013-05-02 13:23:00,52.5,44.4,30.19,North,350,8.0,17.0,74,0.00,,,0.01,meteohub,2013-05-02 18:23:00,
2013-05-02 13:28:00,52.9,44.8,30.19,NNW,338,14.0,18.0,74,0.00,,,0.01,meteohub,2013-05-02 18:28:00,
2013-05-02 13:33:00,53.1,44.6,30.19,NNW,329,15.0,18.0,73,0.00,,,0.01,meteohub,2013-05-02 18:33:00,
2013-05-02 13:38:00,52.9,44.4,30.19,NNW,346,7.0,18.0,73,0.00,,,0.01,meteohub,2013-05-02 18:38:00,
2013-05-02 13:44:00,53.1,44.6,30.19,NW,309,5.0,18.0,73,0.00,,,0.01,meteohub,2013-05-02 18:44:00,
2013-05-02 13:49:00,53.2,45.1,30.19,North,5,7.0,18.0,74,0.00,,,0.01,meteohub,2013-05-02 18:49:00,
2013-05-02 13:54:00,53.2,44.8,30.19,NNW,339,7.0,18.0,73,0.00,,,0.01,meteohub,2013-05-02 18:54:00,
2013-05-02 13:59:00,53.2,44.8,30.20,NW,323,11.0,18.0,73,0.00,,,0.01,meteohub,2013-05-02 18:59:00,
2013-05-02 14:04:00,53.1,44.6,30.20,NNW,328,9.0,19.0,73,0.00,,,0.01,meteohub,2013-05-02 19:04:00,
2013-05-02 14:10:00,52.9,44.4,30.20,NW,323,12.0,19.0,73,0.00,,,0.01,meteohub,2013-05-02 19:10:00,
2013-05-02 14:15:00,52.9,44.4,30.20,North,350,3.0,19.0,73,0.00,,,0.01,meteohub,2013-05-02 19:15:00,
2013-05-02 14:20:00,52.9,44.4,30.20,NNW,331,6.0,17.0,73,0.00,,,0.01,meteohub,2013-05-02 19:20:00,
2013-05-02 14:25:00,53.1,44.6,30.20,NNW,339,5.0,17.0,73,0.00,,,0.01,meteohub,2013-05-02 19:25:00,
2013-05-02 14:30:00,53.2,44.8,30.21,NW,304,10.0,20.0,73,0.00,,,0.01,meteohub,2013-05-02 19:30:00,
2013-05-02 14:36:00,53.1,44.2,30.21,NNW,327,10.0,20.0,72,0.00,,,0.01,meteohub,2013-05-02 19:36:00,
2013-05-02 14:41:00,52.5,44.1,30.21,North,355,3.0,19.0,73,0.00,,,0.01,meteohub,2013-05-02 19:41:00,
2013-05-02 14:46:00,52.3,43.5,30.21,NW,311,14.0,19.0,72,0.00,,,0.01,meteohub,2013-05-02 19:46:00,
2013-05-02 14:51:00,52.0,43.5,30.21,NW,309,17.0,22.0,73,0.00,,,0.01,meteohub,2013-05-02 19:51:00,
2013-05-02 14:56:00,51.6,43.3,30.21,NW,322,7.0,22.0,73,0.00,,,0.01,meteohub,2013-05-02 19:56:00,
2013-05-02 15:01:00,51.6,43.5,30.21,NNW,346,6.0,22.0,74,0.00,,,0.01,meteohub,2013-05-02 20:01:00,
2013-05-02 15:07:00,51.3,43.0,30.21,NW,319,10.0,21.0,73,0.00,,,0.01,meteohub,2013-05-02 20:07:00,
2013-05-02 15:12:00,51.3,43.0,30.21,NW,321,14.0,20.0,73,0.00,,,0.01,meteohub,2013-05-02 20:12:00,
2013-05-02 15:17:00,51.1,42.8,30.21,NNW,345,7.0,20.0,73,0.00,,,0.01,meteohub,2013-05-02 20:17:00,
2013-05-02 15:22:00,50.9,43.0,30.21,NW,308,16.0,21.0,74,0.00,,,0.01,meteohub,2013-05-02 20:22:00,
2013-05-02 15:27:00,50.7,42.4,30.21,NNW,339,5.0,22.0,73,0.00,,,0.01,meteohub,2013-05-02 20:27:00,
2013-05-02 15:32:00,50.5,42.3,30.21,NW,311,7.0,22.0,73,0.00,,,0.01,meteohub,2013-05-02 20:32:00,
2013-05-02 15:37:00,50.4,42.4,30.22,North,9,2.0,22.0,74,0.00,,,0.01,meteohub,2013-05-02 20:37:00,
2013-05-02 15:42:00,50.2,42.3,30.22,NW,322,10.0,20.0,74,0.00,,,0.01,meteohub,2013-05-02 20:42:00,
2013-05-02 15:48:00,49.8,41.9,30.21,North,0,9.0,24.0,74,0.00,,,0.01,meteohub,2013-05-02 20:48:00,
2013-05-02 15:53:00,49.6,41.7,30.22,NW,309,8.0,24.0,74,0.00,,,0.01,meteohub,2013-05-02 20:53:00,
2013-05-02 15:58:00,49.5,41.5,30.22,North,5,7.0,21.0,74,0.00,,,0.01,meteohub,2013-05-02 20:58:00,
2013-05-02 16:03:00,49.3,41.4,30.22,NNW,348,4.0,23.0,74,0.00,,,0.01,meteohub,2013-05-02 21:03:00,
2013-05-02 16:08:00,49.3,41.4,30.22,WNW,301,3.0,23.0,74,0.00,,,0.01,meteohub,2013-05-02 21:08:00,
2013-05-02 16:14:00,49.3,41.4,30.22,NNW,331,5.0,23.0,74,0.00,,,0.01,meteohub,2013-05-02 21:14:00,
2013-05-02 16:19:00,49.3,41.4,30.22,NNW,342,11.0,15.0,74,0.00,,,0.01,meteohub,2013-05-02 21:19:00,
2013-05-02 16:24:00,49.3,41.4,30.22,NNW,348,8.0,20.0,74,0.00,,,0.01,meteohub,2013-05-02 21:24:00,
2013-05-02 16:29:00,49.3,41.4,30.22,NNE,14,7.0,22.0,74,0.00,,,0.01,meteohub,2013-05-02 21:29:00,
2013-05-02 16:34:00,48.9,41.0,30.22,NNW,343,8.0,22.0,74,0.00,,,0.01,meteohub,2013-05-02 21:34:00,
2013-05-02 16:40:00,48.6,41.4,30.22,NW,326,7.0,22.0,76,0.00,,,0.01,meteohub,2013-05-02 21:40:00,
2013-05-02 16:45:00,48.6,41.4,30.22,North,0,15.0,22.0,76,0.00,,,0.01,meteohub,2013-05-02 21:45:00,
2013-05-02 16:50:00,48.0,41.9,30.22,North,355,7.0,22.0,79,0.00,,,0.01,meteohub,2013-05-02 21:50:00,
2013-05-02 16:55:00,47.7,41.7,30.22,NNW,335,2.0,19.0,80,0.00,,,0.01,meteohub,2013-05-02 21:55:00,
2013-05-02 17:00:00,47.5,41.9,30.23,NNW,329,11.0,19.0,81,0.00,,,0.01,meteohub,2013-05-02 22:00:00,
2013-05-02 17:06:00,47.1,42.3,30.23,NW,322,8.0,18.0,83,0.01,,,0.02,meteohub,2013-05-02 22:06:00,
2013-05-02 17:11:00,46.9,42.4,30.22,NNE,15,4.0,19.0,84,0.01,,,0.02,meteohub,2013-05-02 22:11:00,
2013-05-02 17:16:00,46.6,42.3,30.23,North,0,8.0,19.0,85,0.01,,,0.02,meteohub,2013-05-02 22:16:00,
2013-05-02 17:21:00,46.2,42.3,30.23,North,355,16.0,22.0,86,0.01,,,0.02,meteohub,2013-05-02 22:21:00,
2013-05-02 17:26:00,46.2,42.3,30.23,North,5,11.0,22.0,86,0.01,,,0.02,meteohub,2013-05-02 22:26:00,
2013-05-02 17:32:00,46.2,41.9,30.23,North,0,2.0,22.0,85,0.01,,,0.02,meteohub,2013-05-02 22:32:00,
2013-05-02 17:37:00,46.2,41.9,30.23,NNW,347,8.0,20.0,85,0.01,,,0.02,meteohub,2013-05-02 22:37:00,
2013-05-02 17:42:00,46.2,41.9,30.23,NW,322,8.0,20.0,85,0.01,,,0.02,meteohub,2013-05-02 22:42:00,
2013-05-02 17:47:00,46.2,41.7,30.23,North,355,4.0,18.0,84,0.01,,,0.02,meteohub,2013-05-02 22:47:00,
2013-05-02 17:52:00,46.2,41.4,30.23,NW,311,4.0,18.0,83,0.01,,,0.02,meteohub,2013-05-02 22:52:00,
2013-05-02 17:57:00,46.4,41.9,30.23,NW,315,9.0,18.0,84,0.01,,,0.02,meteohub,2013-05-02 22:57:00,
2013-05-02 18:02:00,46.2,41.7,30.23,NW,317,3.0,22.0,84,0.00,,,0.02,meteohub,2013-05-02 23:02:00,
2013-05-02 18:07:00,46.2,41.7,30.23,NNW,336,4.0,22.0,84,0.00,,,0.02,meteohub,2013-05-02 23:07:00,
2013-05-02 18:12:00,46.2,41.9,30.24,NW,318,3.0,15.0,85,0.00,,,0.02,meteohub,2013-05-02 23:12:00,
2013-05-02 18:17:00,46.0,42.1,30.24,NNW,339,12.0,18.0,86,0.00,,,0.02,meteohub,2013-05-02 23:17:00,
2013-05-02 18:22:00,45.7,41.7,30.24,NE,47,5.0,22.0,86,0.00,,,0.02,meteohub,2013-05-02 23:22:00,
2013-05-02 18:27:00,45.7,41.4,30.24,North,0,4.0,22.0,85,0.00,,,0.02,meteohub,2013-05-02 23:27:00,
2013-05-02 18:32:00,45.7,41.4,30.24,NNW,330,8.0,22.0,85,0.00,,,0.02,meteohub,2013-05-02 23:32:00,
2013-05-02 18:37:00,45.3,40.8,30.24,NNW,346,7.0,22.0,84,0.00,,,0.02,meteohub,2013-05-02 23:37:00,
2013-05-02 18:42:00,45.3,40.8,30.25,NW,323,4.0,18.0,84,0.00,,,0.02,meteohub,2013-05-02 23:42:00,
2013-05-02 18:47:00,45.1,40.3,30.25,NNW,327,8.0,18.0,83,0.00,,,0.02,meteohub,2013-05-02 23:47:00,
2013-05-02 18:52:00,45.0,40.5,30.25,NW,317,4.0,16.0,84,0.00,,,0.02,meteohub,2013-05-02 23:52:00,
2013-05-02 18:57:00,44.8,40.3,30.25,NNW,333,10.0,16.0,84,0.00,,,0.02,meteohub,2013-05-02 23:57:00,
2013-05-02 19:02:00,44.8,40.3,30.25,NNW,342,15.0,19.0,84,0.00,,,0.02,meteohub,2013-05-03 00:02:00,
2013-05-02 19:07:00,44.4,40.3,30.25,NNW,329,9.0,19.0,85,0.00,,,0.02,meteohub,2013-05-03 00:07:00,
2013-05-02 19:12:00,44.2,40.1,30.25,NNW,329,4.0,16.0,85,0.00,,,0.02,meteohub,2013-05-03 00:12:00,
2013-05-02 19:17:00,44.1,39.9,30.26,NNW,334,7.0,20.0,85,0.00,,,0.02,meteohub,2013-05-03 00:17:00,
2013-05-02 19:22:00,44.1,39.9,30.26,NW,321,8.0,20.0,85,0.00,,,0.02,meteohub,2013-05-03 00:22:00,
2013-05-02 19:27:00,44.1,39.9,30.26,NW,315,5.0,20.0,85,0.00,,,0.02,meteohub,2013-05-03 00:27:00,
2013-05-02 19:32:00,44.1,39.6,30.26,North,5,8.0,21.0,84,0.00,,,0.02,meteohub,2013-05-03 00:32:00,
2013-05-02 19:37:00,44.2,39.7,30.26,NW,311,10.0,21.0,84,0.00,,,0.02,meteohub,2013-05-03 00:37:00,
2013-05-02 19:42:00,44.2,39.7,30.27,NW,309,10.0,21.0,84,0.00,,,0.02,meteohub,2013-05-03 00:42:00,
2013-05-02 19:47:00,44.2,39.4,30.27,North,355,6.0,16.0,83,0.00,,,0.02,meteohub,2013-05-03 00:47:00,
2013-05-02 19:52:00,44.2,39.4,30.27,NNE,26,5.0,16.0,83,0.00,,,0.02,meteohub,2013-05-03 00:52:00,
2013-05-02 19:57:00,44.2,39.4,30.27,WNW,299,13.0,25.0,83,0.00,,,0.02,meteohub,2013-05-03 00:57:00,
2013-05-02 20:03:00,44.2,39.4,30.27,NW,315,7.0,25.0,83,0.00,,,0.02,meteohub,2013-05-03 01:03:00,
2013-05-02 20:08:00,44.2,39.4,30.27,North,355,3.0,25.0,83,0.00,,,0.02,meteohub,2013-05-03 01:08:00,
2013-05-02 20:13:00,44.2,39.4,30.27,NW,315,12.0,18.0,83,0.00,,,0.02,meteohub,2013-05-03 01:13:00,
2013-05-02 20:18:00,44.2,39.0,30.27,North,349,6.0,15.0,82,0.00,,,0.02,meteohub,2013-05-03 01:18:00,
2013-05-02 20:24:00,44.2,39.0,30.27,NNW,328,2.0,22.0,82,0.00,,,0.02,meteohub,2013-05-03 01:24:00,
2013-05-02 20:29:00,44.2,39.0,30.28,North,355,9.0,22.0,82,0.00,,,0.02,meteohub,2013-05-03 01:29:00,
2013-05-02 20:34:00,44.2,39.0,30.28,North,11,5.0,22.0,82,0.00,,,0.02,meteohub,2013-05-03 01:34:00,
2013-05-02 20:39:00,44.2,39.0,30.28,North,5,6.0,16.0,82,0.00,,,0.02,meteohub,2013-05-03 01:39:00,
2013-05-02 20:45:00,44.2,39.4,30.28,WNW,298,5.0,20.0,83,0.00,,,0.02,meteohub,2013-05-03 01:45:00,
2013-05-02 20:50:00,44.1,39.6,30.29,NNW,338,5.0,20.0,84,0.00,,,0.02,meteohub,2013-05-03 01:50:00,
2013-05-02 20:55:00,44.1,39.2,30.29,NNW,340,10.0,20.0,83,0.00,,,0.02,meteohub,2013-05-03 01:55:00,
2013-05-02 21:00:00,44.1,39.6,30.29,NW,313,5.0,14.0,84,0.00,,,0.02,meteohub,2013-05-03 02:00:00,
2013-05-02 21:05:00,44.1,39.6,30.29,North,9,5.0,14.0,84,0.00,,,0.02,meteohub,2013-05-03 02:05:00,
2013-05-02 21:10:00,44.1,39.6,30.29,NW,322,4.0,14.0,84,0.00,,,0.02,meteohub,2013-05-03 02:10:00,
2013-05-02 21:16:00,44.2,39.4,30.28,North,355,5.0,14.0,83,0.00,,,0.02,meteohub,2013-05-03 02:16:00,
2013-05-02 21:21:00,44.2,38.8,30.29,NNE,13,4.0,17.0,81,0.00,,,0.02,meteohub,2013-05-03 02:21:00,
2013-05-02 21:26:00,44.4,38.3,30.29,NNW,336,4.0,17.0,79,0.00,,,0.02,meteohub,2013-05-03 02:26:00,
2013-05-02 21:31:00,44.6,38.5,30.29,NNW,342,6.0,17.0,79,0.00,,,0.02,meteohub,2013-05-03 02:31:00,
2013-05-02 21:37:00,44.6,38.1,30.29,North,355,5.0,16.0,78,0.00,,,0.02,meteohub,2013-05-03 02:37:00,
2013-05-02 21:42:00,44.6,38.1,30.29,North,5,3.0,16.0,78,0.00,,,0.02,meteohub,2013-05-03 02:42:00,
2013-05-02 21:47:00,44.6,38.1,30.29,North,355,4.0,16.0,78,0.00,,,0.02,meteohub,2013-05-03 02:47:00,
2013-05-02 21:52:00,44.8,38.3,30.29,NW,325,6.0,16.0,78,0.00,,,0.02,meteohub,2013-05-03 02:52:00,
2013-05-02 21:57:00,44.8,38.3,30.29,NW,324,11.0,16.0,78,0.00,,,0.02,meteohub,2013-05-03 02:57:00,
2013-05-02 22:02:00,44.8,38.3,30.29,North,355,3.0,15.0,78,0.00,,,0.02,meteohub,2013-05-03 03:02:00,
2013-05-02 22:07:00,44.8,38.3,30.30,NNW,345,5.0,20.0,78,0.00,,,0.02,meteohub,2013-05-03 03:07:00,
2013-05-02 22:12:00,44.8,38.3,30.30,North,355,5.0,20.0,78,0.00,,,0.02,meteohub,2013-05-03 03:12:00,
2013-05-02 22:17:00,45.0,38.5,30.30,NNW,346,3.0,15.0,78,0.00,,,0.02,meteohub,2013-05-03 03:17:00,
2013-05-02 22:22:00,45.0,38.1,30.29,NW,304,5.0,16.0,77,0.00,,,0.02,meteohub,2013-05-03 03:22:00,
2013-05-02 22:28:00,45.1,38.3,30.29,NNW,334,5.0,16.0,77,0.00,,,0.02,meteohub,2013-05-03 03:28:00,
2013-05-02 22:33:00,45.1,37.9,30.30,NW,308,4.0,16.0,76,0.00,,,0.02,meteohub,2013-05-03 03:33:00,
2013-05-02 22:38:00,45.3,38.1,30.30,NNE,24,3.0,16.0,76,0.00,,,0.02,meteohub,2013-05-03 03:38:00,
2013-05-02 22:43:00,45.3,38.1,30.30,NNW,348,5.0,16.0,76,0.00,,,0.02,meteohub,2013-05-03 03:43:00,
2013-05-02 22:48:00,45.3,38.1,30.30,NNW,336,8.0,15.0,76,0.00,,,0.02,meteohub,2013-05-03 03:48:00,
2013-05-02 22:54:00,45.5,38.1,30.29,NNW,329,3.0,15.0,75,0.00,,,0.02,meteohub,2013-05-03 03:54:00,
2013-05-02 22:59:00,45.5,38.1,30.29,NNW,334,3.0,14.0,75,0.00,,,0.02,meteohub,2013-05-03 03:59:00,
2013-05-02 23:01:00,45.5,38.1,30.29,North,5,6.0,14.0,75,0.00,,,0.02,meteohub,2013-05-03 04:01:00,
2013-05-02 23:02:00,45.5,38.1,30.29,NNW,328,1.0,14.0,75,0.00,,,0.02,meteohub,2013-05-03 04:02:00,
2013-05-02 23:03:00,45.5,38.1,30.29,NW,306,1.0,14.0,75,0.00,,,0.02,meteohub,2013-05-03 04:03:00,
2013-05-02 23:05:00,45.5,37.8,30.29,NW,315,5.0,14.0,74,0.00,,,0.02,meteohub,2013-05-03 04:05:00,
2013-05-02 23:06:00,45.5,37.8,30.29,NW,309,9.0,14.0,74,0.00,,,0.02,meteohub,2013-05-03 04:06:00,
2013-05-02 23:11:00,45.7,37.9,30.29,NNW,347,4.0,14.0,74,0.00,,,0.02,meteohub,2013-05-03 04:11:00,
2013-05-02 23:16:00,45.7,37.6,30.28,NW,319,4.0,18.0,73,0.00,,,0.02,meteohub,2013-05-03 04:16:00,
2013-05-02 23:21:00,45.7,37.6,30.28,NNE,26,3.0,18.0,73,0.00,,,0.02,meteohub,2013-05-03 04:21:00,
2013-05-02 23:27:00,45.7,37.6,30.28,NNW,348,0.0,18.0,73,0.00,,,0.02,meteohub,2013-05-03 04:27:00,
2013-05-02 23:32:00,45.5,37.4,30.28,NNE,12,6.0,15.0,73,0.00,,,0.02,meteohub,2013-05-03 04:32:00,
2013-05-02 23:37:00,45.5,37.4,30.28,NNE,15,3.0,17.0,73,0.00,,,0.02,meteohub,2013-05-03 04:37:00,
2013-05-02 23:42:00,45.5,37.4,30.28,NW,317,5.0,17.0,73,0.00,,,0.02,meteohub,2013-05-03 04:42:00,
2013-05-02 23:47:00,45.5,37.4,30.28,NW,323,3.0,17.0,73,0.00,,,0.02,meteohub,2013-05-03 04:47:00,
2013-05-02 23:52:00,45.5,37.4,30.27,NNW,329,11.0,15.0,73,0.00,,,0.02,meteohub,2013-05-03 04:52:00,
2013-05-02 23:57:00,45.5,37.4,30.27,North,5,6.0,15.0,73,0.00,,,0.02,meteohub,2013-05-03 04:57:00,